sensor_id;sensor_type;location;lat;lon;timestamp;temperature;humidity
9537;DHT22;4807;48.024;11.726;2023-01-15T00:02:02;6.50;92.70
9537;DHT22;4807;48.024;11.726;2023-01-15T00:05:10;6.60;92.60
9537;DHT22;4807;48.024;11.726;2023-01-15T00:08:19;6.60;93.20
9537;DHT22;4807;48.024;11.726;2023-01-15T00:11:27;6.60;93.10
9537;DHT22;4807;48.024;11.726;2023-01-15T00:14:36;6.60;93.20
9537;DHT22;4807;48.024;11.726;2023-01-15T00:17:45;6.60;93.10
9537;DHT22;4807;48.024;11.726;2023-01-15T00:20:58;6.60;93.50
9537;DHT22;4807;48.024;11.726;2023-01-15T00:24:08;6.60;93.40
9537;DHT22;4807;48.024;11.726;2023-01-15T00:31:02;6.60;93.10
9537;DHT22;4807;48.024;11.726;2023-01-15T00:34:16;6.60;93.30
9537;DHT22;4807;48.024;11.726;2023-01-15T00:37:25;6.60;93.10
9537;DHT22;4807;48.024;11.726;2023-01-15T00:40:33;6.60;92.80
9537;DHT22;4807;48.024;11.726;2023-01-15T00:43:41;6.60;92.30
9537;DHT22;4807;48.024;11.726;2023-01-15T00:46:52;6.60;92.20
9537;DHT22;4807;48.024;11.726;2023-01-15T00:50:01;6.50;92.40
9537;DHT22;4807;48.024;11.726;2023-01-15T00:53:10;6.50;92.30
9537;DHT22;4807;48.024;11.726;2023-01-15T00:56:18;6.50;92.70
9537;DHT22;4807;48.024;11.726;2023-01-15T00:59:27;6.40;92.50
9537;DHT22;4807;48.024;11.726;2023-01-15T01:02:38;6.40;92.50
9537;DHT22;4807;48.024;11.726;2023-01-15T01:05:48;6.40;92.90
9537;DHT22;4807;48.024;11.726;2023-01-15T01:08:57;6.40;92.80
9537;DHT22;4807;48.024;11.726;2023-01-15T01:12:05;6.40;93.20
9537;DHT22;4807;48.024;11.726;2023-01-15T01:15:16;6.50;93.30
9537;DHT22;4807;48.024;11.726;2023-01-15T01:18:25;6.40;93.40
9537;DHT22;4807;48.024;11.726;2023-01-15T01:21:36;6.50;94.00
9537;DHT22;4807;48.024;11.726;2023-01-15T01:24:45;6.40;94.90
9537;DHT22;4807;48.024;11.726;2023-01-15T01:27:53;6.40;95.00
9537;DHT22;4807;48.024;11.726;2023-01-15T01:31:04;6.50;94.40
9537;DHT22;4807;48.024;11.726;2023-01-15T01:34:13;6.50;94.50
9537;DHT22;4807;48.024;11.726;2023-01-15T01:37:23;6.50;94.70
9537;DHT22;4807;48.024;11.726;2023-01-15T01:40:33;6.50;95.00
9537;DHT22;4807;48.024;11.726;2023-01-15T01:43:54;6.50;95.90
9537;DHT22;4807;48.024;11.726;2023-01-15T01:47:08;6.50;96.10
9537;DHT22;4807;48.024;11.726;2023-01-15T01:50:20;6.50;96.40
9537;DHT22;4807;48.024;11.726;2023-01-15T01:53:31;6.40;96.10
9537;DHT22;4807;48.024;11.726;2023-01-15T01:56:40;6.50;95.90
9537;DHT22;4807;48.024;11.726;2023-01-15T01:59:50;6.50;96.00
9537;DHT22;4807;48.024;11.726;2023-01-15T02:03:00;6.50;95.90
9537;DHT22;4807;48.024;11.726;2023-01-15T02:06:13;6.60;96.00
9537;DHT22;4807;48.024;11.726;2023-01-15T02:09:24;6.70;95.70
9537;DHT22;4807;48.024;11.726;2023-01-15T02:12:35;6.70;95.60
9537;DHT22;4807;48.024;11.726;2023-01-15T02:15:53;6.60;95.70
9537;DHT22;4807;48.024;11.726;2023-01-15T02:19:14;6.60;96.00
9537;DHT22;4807;48.024;11.726;2023-01-15T02:22:34;6.60;96.00
9537;DHT22;4807;48.024;11.726;2023-01-15T02:26:17;6.60;96.40
9537;DHT22;4807;48.024;11.726;2023-01-15T02:29:49;6.50;96.50
9537;DHT22;4807;48.024;11.726;2023-01-15T02:33:06;6.50;96.40
9537;DHT22;4807;48.024;11.726;2023-01-15T02:36:23;6.50;96.50
9537;DHT22;4807;48.024;11.726;2023-01-15T02:39:41;6.50;96.80
9537;DHT22;4807;48.024;11.726;2023-01-15T02:42:53;6.50;96.60
9537;DHT22;4807;48.024;11.726;2023-01-15T02:46:06;6.50;96.70
9537;DHT22;4807;48.024;11.726;2023-01-15T02:49:20;6.50;96.80
9537;DHT22;4807;48.024;11.726;2023-01-15T02:52:33;6.40;96.90
9537;DHT22;4807;48.024;11.726;2023-01-15T02:55:47;6.40;96.90
9537;DHT22;4807;48.024;11.726;2023-01-15T02:59:06;6.30;97.00
9537;DHT22;4807;48.024;11.726;2023-01-15T03:02:26;6.30;97.00
9537;DHT22;4807;48.024;11.726;2023-01-15T03:05:42;6.30;97.30
9537;DHT22;4807;48.024;11.726;2023-01-15T03:08:58;6.30;97.40
9537;DHT22;4807;48.024;11.726;2023-01-15T03:12:15;6.30;97.40
9537;DHT22;4807;48.024;11.726;2023-01-15T03:15:33;6.40;97.40
9537;DHT22;4807;48.024;11.726;2023-01-15T03:19:13;6.40;97.50
9537;DHT22;4807;48.024;11.726;2023-01-15T03:22:36;6.50;97.50
9537;DHT22;4807;48.024;11.726;2023-01-15T03:25:50;6.50;97.50
9537;DHT22;4807;48.024;11.726;2023-01-15T03:28:59;6.50;97.60
9537;DHT22;4807;48.024;11.726;2023-01-15T03:32:12;6.60;97.70
9537;DHT22;4807;48.024;11.726;2023-01-15T03:35:46;6.60;97.80
9537;DHT22;4807;48.024;11.726;2023-01-15T03:39:10;6.60;97.70
9537;DHT22;4807;48.024;11.726;2023-01-15T03:42:39;6.70;97.70
9537;DHT22;4807;48.024;11.726;2023-01-15T03:46:31;6.80;98.00
9537;DHT22;4807;48.024;11.726;2023-01-15T03:49:53;6.70;97.90
9537;DHT22;4807;48.024;11.726;2023-01-15T03:53:19;6.80;98.40
9537;DHT22;4807;48.024;11.726;2023-01-15T03:56:39;6.80;99.00
9537;DHT22;4807;48.024;11.726;2023-01-15T04:00:07;6.70;99.20
9537;DHT22;4807;48.024;11.726;2023-01-15T04:03:22;6.60;99.50
9537;DHT22;4807;48.024;11.726;2023-01-15T04:06:34;6.70;99.20
9537;DHT22;4807;48.024;11.726;2023-01-15T04:09:47;6.70;99.10
9537;DHT22;4807;48.024;11.726;2023-01-15T04:12:56;6.80;99.20
9537;DHT22;4807;48.024;11.726;2023-01-15T04:16:05;6.70;99.30
9537;DHT22;4807;48.024;11.726;2023-01-15T04:19:14;8.40;99.70
9537;DHT22;4807;48.024;11.726;2023-01-15T04:22:30;6.70;98.90
9537;DHT22;4807;48.024;11.726;2023-01-15T04:25:40;6.80;99.10
9537;DHT22;4807;48.024;11.726;2023-01-15T04:28:49;6.70;99.20
9537;DHT22;4807;48.024;11.726;2023-01-15T04:31:57;6.70;99.40
9537;DHT22;4807;48.024;11.726;2023-01-15T04:35:06;6.80;99.70
9537;DHT22;4807;48.024;11.726;2023-01-15T04:38:14;6.70;99.70
9537;DHT22;4807;48.024;11.726;2023-01-15T04:41:24;6.70;99.90
9537;DHT22;4807;48.024;11.726;2023-01-15T04:44:50;6.80;99.80
9537;DHT22;4807;48.024;11.726;2023-01-15T04:47:59;6.60;99.90
9537;DHT22;4807;48.024;11.726;2023-01-15T04:51:07;6.60;99.90
9537;DHT22;4807;48.024;11.726;2023-01-15T04:54:15;6.60;99.90
9537;DHT22;4807;48.024;11.726;2023-01-15T04:57:25;6.70;99.90
9537;DHT22;4807;48.024;11.726;2023-01-15T05:00:35;6.70;99.90
9537;DHT22;4807;48.024;11.726;2023-01-15T05:03:43;6.60;99.90
9537;DHT22;4807;48.024;11.726;2023-01-15T05:06:51;6.60;99.90
9537;DHT22;4807;48.024;11.726;2023-01-15T05:10:00;6.60;99.90
9537;DHT22;4807;48.024;11.726;2023-01-15T05:13:09;6.70;99.90
9537;DHT22;4807;48.024;11.726;2023-01-15T05:16:19;6.60;99.90
9537;DHT22;4807;48.024;11.726;2023-01-15T05:19:30;6.60;99.90
9537;DHT22;4807;48.024;11.726;2023-01-15T05:22:38;6.60;99.90
9537;DHT22;4807;48.024;11.726;2023-01-15T05:25:47;6.70;99.90
9537;DHT22;4807;48.024;11.726;2023-01-15T05:28:57;6.60;99.90
9537;DHT22;4807;48.024;11.726;2023-01-15T05:32:07;6.60;99.90
9537;DHT22;4807;48.024;11.726;2023-01-15T05:35:15;6.70;99.90
9537;DHT22;4807;48.024;11.726;2023-01-15T05:38:24;6.70;99.90
9537;DHT22;4807;48.024;11.726;2023-01-15T05:41:32;6.80;99.90
9537;DHT22;4807;48.024;11.726;2023-01-15T05:44:56;6.90;99.90
9537;DHT22;4807;48.024;11.726;2023-01-15T05:48:04;7.00;99.50
9537;DHT22;4807;48.024;11.726;2023-01-15T05:51:13;7.10;99.00
9537;DHT22;4807;48.024;11.726;2023-01-15T05:54:23;7.20;98.90
9537;DHT22;4807;48.024;11.726;2023-01-15T05:57:33;7.30;98.70
9537;DHT22;4807;48.024;11.726;2023-01-15T06:00:43;7.50;98.00
9537;DHT22;4807;48.024;11.726;2023-01-15T06:03:51;7.60;98.20
9537;DHT22;4807;48.024;11.726;2023-01-15T06:07:01;7.60;97.40
9537;DHT22;4807;48.024;11.726;2023-01-15T06:10:09;7.70;97.00
9537;DHT22;4807;48.024;11.726;2023-01-15T06:13:18;7.80;97.40
9537;DHT22;4807;48.024;11.726;2023-01-15T06:16:27;7.80;98.20
9537;DHT22;4807;48.024;11.726;2023-01-15T06:19:36;7.80;98.20
9537;DHT22;4807;48.024;11.726;2023-01-15T06:22:44;7.70;99.20
9537;DHT22;4807;48.024;11.726;2023-01-15T06:25:52;7.70;99.80
9537;DHT22;4807;48.024;11.726;2023-01-15T06:29:00;7.70;99.30
9537;DHT22;4807;48.024;11.726;2023-01-15T06:32:10;7.70;99.10
9537;DHT22;4807;48.024;11.726;2023-01-15T06:35:18;7.70;99.00
9537;DHT22;4807;48.024;11.726;2023-01-15T06:38:26;7.70;99.50
9537;DHT22;4807;48.024;11.726;2023-01-15T06:41:34;7.60;99.80
9537;DHT22;4807;48.024;11.726;2023-01-15T06:45:00;7.60;99.60
9537;DHT22;4807;48.024;11.726;2023-01-15T06:48:28;7.60;99.70
9537;DHT22;4807;48.024;11.726;2023-01-15T06:51:36;7.60;99.90
9537;DHT22;4807;48.024;11.726;2023-01-15T06:54:44;9.50;99.90
9537;DHT22;4807;48.024;11.726;2023-01-15T06:57:52;7.80;99.90
9537;DHT22;4807;48.024;11.726;2023-01-15T07:01:06;7.80;99.90
9537;DHT22;4807;48.024;11.726;2023-01-15T07:04:17;7.70;99.90
9537;DHT22;4807;48.024;11.726;2023-01-15T07:07:27;7.80;99.90
9537;DHT22;4807;48.024;11.726;2023-01-15T07:10:35;7.70;99.90
9537;DHT22;4807;48.024;11.726;2023-01-15T07:13:43;7.70;99.90
9537;DHT22;4807;48.024;11.726;2023-01-15T07:16:51;7.70;99.90
9537;DHT22;4807;48.024;11.726;2023-01-15T07:20:02;7.70;99.90
9537;DHT22;4807;48.024;11.726;2023-01-15T07:23:11;7.60;99.90
9537;DHT22;4807;48.024;11.726;2023-01-15T07:26:21;7.60;99.90
9537;DHT22;4807;48.024;11.726;2023-01-15T07:29:29;7.60;99.90
9537;DHT22;4807;48.024;11.726;2023-01-15T07:32:37;7.70;99.90
9537;DHT22;4807;48.024;11.726;2023-01-15T07:35:47;7.60;99.90
9537;DHT22;4807;48.024;11.726;2023-01-15T07:38:55;7.70;99.90
9537;DHT22;4807;48.024;11.726;2023-01-15T07:42:03;7.60;99.90
9537;DHT22;4807;48.024;11.726;2023-01-15T07:45:29;7.70;99.90
9537;DHT22;4807;48.024;11.726;2023-01-15T07:48:55;7.80;99.90
9537;DHT22;4807;48.024;11.726;2023-01-15T07:52:20;7.90;99.90
9537;DHT22;4807;48.024;11.726;2023-01-15T07:55:29;8.00;99.90
9537;DHT22;4807;48.024;11.726;2023-01-15T07:58:38;8.10;99.90
9537;DHT22;4807;48.024;11.726;2023-01-15T08:01:46;8.20;99.90
9537;DHT22;4807;48.024;11.726;2023-01-15T08:04:54;8.20;99.90
9537;DHT22;4807;48.024;11.726;2023-01-15T08:08:04;8.20;99.90
9537;DHT22;4807;48.024;11.726;2023-01-15T08:11:13;8.30;99.90
9537;DHT22;4807;48.024;11.726;2023-01-15T08:14:38;7.60;99.90
9537;DHT22;4807;48.024;11.726;2023-01-15T08:18:04;8.60;99.90
9537;DHT22;4807;48.024;11.726;2023-01-15T08:21:13;8.70;99.90
9537;DHT22;4807;48.024;11.726;2023-01-15T08:24:23;8.70;99.90
9537;DHT22;4807;48.024;11.726;2023-01-15T08:27:32;8.80;99.90
9537;DHT22;4807;48.024;11.726;2023-01-15T08:30:43;8.90;99.90
9537;DHT22;4807;48.024;11.726;2023-01-15T08:33:51;9.00;99.90
9537;DHT22;4807;48.024;11.726;2023-01-15T08:37:00;9.00;99.90
9537;DHT22;4807;48.024;11.726;2023-01-15T08:40:11;9.00;99.90
9537;DHT22;4807;48.024;11.726;2023-01-15T08:43:19;9.00;99.90
9537;DHT22;4807;48.024;11.726;2023-01-15T08:46:27;8.90;99.00
9537;DHT22;4807;48.024;11.726;2023-01-15T08:49:36;8.90;98.80
9537;DHT22;4807;48.024;11.726;2023-01-15T08:52:44;8.90;98.20
9537;DHT22;4807;48.024;11.726;2023-01-15T08:55:54;9.00;97.80
9537;DHT22;4807;48.024;11.726;2023-01-15T08:59:03;9.00;97.50
9537;DHT22;4807;48.024;11.726;2023-01-15T09:02:14;9.00;97.10
9537;DHT22;4807;48.024;11.726;2023-01-15T09:05:23;9.10;97.00
9537;DHT22;4807;48.024;11.726;2023-01-15T09:08:34;9.10;96.60
9537;DHT22;4807;48.024;11.726;2023-01-15T09:11:44;9.30;96.90
9537;DHT22;4807;48.024;11.726;2023-01-15T09:14:52;9.40;95.90
9537;DHT22;4807;48.024;11.726;2023-01-15T09:18:08;9.60;95.60
9537;DHT22;4807;48.024;11.726;2023-01-15T09:21:18;9.80;95.80
9537;DHT22;4807;48.024;11.726;2023-01-15T09:24:26;9.80;95.30
9537;DHT22;4807;48.024;11.726;2023-01-15T09:27:36;9.80;95.80
9537;DHT22;4807;48.024;11.726;2023-01-15T09:30:44;9.90;95.80
9537;DHT22;4807;48.024;11.726;2023-01-15T09:33:53;10.00;95.20
9537;DHT22;4807;48.024;11.726;2023-01-15T09:37:02;10.00;95.10
9537;DHT22;4807;48.024;11.726;2023-01-15T09:40:28;10.20;95.10
9537;DHT22;4807;48.024;11.726;2023-01-15T09:43:54;10.30;95.70
9537;DHT22;4807;48.024;11.726;2023-01-15T09:47:14;10.50;95.80
9537;DHT22;4807;48.024;11.726;2023-01-15T09:50:37;10.70;95.90
9537;DHT22;4807;48.024;11.726;2023-01-15T09:54:16;10.90;95.90
9537;DHT22;4807;48.024;11.726;2023-01-15T09:57:31;11.10;95.90
9537;DHT22;4807;48.024;11.726;2023-01-15T10:00:45;11.30;95.40
9537;DHT22;4807;48.024;11.726;2023-01-15T10:03:58;11.50;94.90
9537;DHT22;4807;48.024;11.726;2023-01-15T10:07:16;11.60;94.70
9537;DHT22;4807;48.024;11.726;2023-01-15T10:10:34;11.60;94.70
9537;DHT22;4807;48.024;11.726;2023-01-15T10:13:49;11.70;94.20
9537;DHT22;4807;48.024;11.726;2023-01-15T10:17:08;11.80;93.50
9537;DHT22;4807;48.024;11.726;2023-01-15T10:20:47;11.90;93.70
9537;DHT22;4807;48.024;11.726;2023-01-15T10:24:05;12.00;93.60
9537;DHT22;4807;48.024;11.726;2023-01-15T10:27:21;12.00;93.80
9537;DHT22;4807;48.024;11.726;2023-01-15T10:30:35;12.00;93.40
9537;DHT22;4807;48.024;11.726;2023-01-15T10:34:05;11.70;95.40
9537;DHT22;4807;48.024;11.726;2023-01-15T10:37:35;9.00;99.90
9537;DHT22;4807;48.024;11.726;2023-01-15T10:41:04;7.80;99.90
9537;DHT22;4807;48.024;11.726;2023-01-15T10:44:23;7.20;99.90
9537;DHT22;4807;48.024;11.726;2023-01-15T10:47:42;6.90;99.90
9537;DHT22;4807;48.024;11.726;2023-01-15T10:51:00;6.70;99.90
9537;DHT22;4807;48.024;11.726;2023-01-15T10:54:18;6.60;99.90
9537;DHT22;4807;48.024;11.726;2023-01-15T10:57:40;6.40;99.90
9537;DHT22;4807;48.024;11.726;2023-01-15T11:01:10;6.30;99.90
9537;DHT22;4807;48.024;11.726;2023-01-15T11:04:21;6.40;99.90
9537;DHT22;4807;48.024;11.726;2023-01-15T11:07:37;6.30;99.90
9537;DHT22;4807;48.024;11.726;2023-01-15T11:11:17;6.50;99.90
9537;DHT22;4807;48.024;11.726;2023-01-15T11:14:34;6.30;99.90
9537;DHT22;4807;48.024;11.726;2023-01-15T11:18:03;6.20;99.90
9537;DHT22;4807;48.024;11.726;2023-01-15T11:21:39;6.10;99.90
9537;DHT22;4807;48.024;11.726;2023-01-15T11:24:53;6.00;99.90
9537;DHT22;4807;48.024;11.726;2023-01-15T11:28:06;5.80;99.90
9537;DHT22;4807;48.024;11.726;2023-01-15T11:31:16;5.80;99.90
9537;DHT22;4807;48.024;11.726;2023-01-15T11:34:24;5.70;99.90
9537;DHT22;4807;48.024;11.726;2023-01-15T11:37:32;5.70;99.90
9537;DHT22;4807;48.024;11.726;2023-01-15T11:40:51;5.70;99.90
9537;DHT22;4807;48.024;11.726;2023-01-15T11:44:00;5.70;99.90
9537;DHT22;4807;48.024;11.726;2023-01-15T11:47:26;5.60;99.90
9537;DHT22;4807;48.024;11.726;2023-01-15T11:50:54;5.50;99.90
9537;DHT22;4807;48.024;11.726;2023-01-15T11:54:10;5.50;99.90
9537;DHT22;4807;48.024;11.726;2023-01-15T11:57:29;5.40;99.90
9537;DHT22;4807;48.024;11.726;2023-01-15T12:00:42;5.30;99.90
9537;DHT22;4807;48.024;11.726;2023-01-15T12:03:51;5.20;99.90
9537;DHT22;4807;48.024;11.726;2023-01-15T12:07:01;5.20;99.90
9537;DHT22;4807;48.024;11.726;2023-01-15T12:10:18;5.10;99.90
9537;DHT22;4807;48.024;11.726;2023-01-15T12:13:55;5.00;99.90
9537;DHT22;4807;48.024;11.726;2023-01-15T12:17:26;5.00;99.90
9537;DHT22;4807;48.024;11.726;2023-01-15T12:20:56;4.90;99.90
9537;DHT22;4807;48.024;11.726;2023-01-15T12:24:31;4.90;99.90
9537;DHT22;4807;48.024;11.726;2023-01-15T12:27:55;5.00;99.90
9537;DHT22;4807;48.024;11.726;2023-01-15T12:31:10;5.00;99.90
9537;DHT22;4807;48.024;11.726;2023-01-15T12:34:26;5.00;99.90
9537;DHT22;4807;48.024;11.726;2023-01-15T12:37:44;4.90;99.90
9537;DHT22;4807;48.024;11.726;2023-01-15T12:41:06;4.90;99.90
9537;DHT22;4807;48.024;11.726;2023-01-15T12:44:20;4.80;99.90
9537;DHT22;4807;48.024;11.726;2023-01-15T12:47:57;4.90;99.90
9537;DHT22;4807;48.024;11.726;2023-01-15T12:51:17;4.90;99.90
9537;DHT22;4807;48.024;11.726;2023-01-15T12:54:36;4.90;99.90
9537;DHT22;4807;48.024;11.726;2023-01-15T12:57:52;5.00;99.90
9537;DHT22;4807;48.024;11.726;2023-01-15T13:01:11;5.00;99.90
9537;DHT22;4807;48.024;11.726;2023-01-15T13:04:29;5.00;99.90
9537;DHT22;4807;48.024;11.726;2023-01-15T13:07:43;5.10;99.90
9537;DHT22;4807;48.024;11.726;2023-01-15T13:11:00;5.10;99.90
9537;DHT22;4807;48.024;11.726;2023-01-15T13:14:13;5.10;99.90
9537;DHT22;4807;48.024;11.726;2023-01-15T13:17:32;5.10;99.90
9537;DHT22;4807;48.024;11.726;2023-01-15T13:20:57;5.10;99.90
9537;DHT22;4807;48.024;11.726;2023-01-15T13:24:26;5.00;99.90
9537;DHT22;4807;48.024;11.726;2023-01-15T13:28:19;5.10;99.90
9537;DHT22;4807;48.024;11.726;2023-01-15T13:31:48;5.00;99.90
9537;DHT22;4807;48.024;11.726;2023-01-15T13:35:10;5.00;99.90
9537;DHT22;4807;48.024;11.726;2023-01-15T13:38:25;4.90;99.90
9537;DHT22;4807;48.024;11.726;2023-01-15T13:41:37;4.80;99.90
9537;DHT22;4807;48.024;11.726;2023-01-15T13:45:21;4.60;99.90
9537;DHT22;4807;48.024;11.726;2023-01-15T13:48:42;4.60;99.90
9537;DHT22;4807;48.024;11.726;2023-01-15T13:51:52;4.60;99.90
9537;DHT22;4807;48.024;11.726;2023-01-15T13:55:10;4.70;99.90
9537;DHT22;4807;48.024;11.726;2023-01-15T13:58:38;4.70;99.90
9537;DHT22;4807;48.024;11.726;2023-01-15T14:01:58;4.70;99.90
9537;DHT22;4807;48.024;11.726;2023-01-15T14:05:25;4.60;99.90
9537;DHT22;4807;48.024;11.726;2023-01-15T14:08:38;4.60;99.90
9537;DHT22;4807;48.024;11.726;2023-01-15T14:12:02;4.40;99.90
9537;DHT22;4807;48.024;11.726;2023-01-15T14:15:26;4.50;99.90
9537;DHT22;4807;48.024;11.726;2023-01-15T14:19:09;4.50;99.90
9537;DHT22;4807;48.024;11.726;2023-01-15T14:22:50;4.40;99.90
9537;DHT22;4807;48.024;11.726;2023-01-15T14:26:16;4.40;99.90
9537;DHT22;4807;48.024;11.726;2023-01-15T14:29:53;4.30;99.90
9537;DHT22;4807;48.024;11.726;2023-01-15T14:33:20;4.30;99.90
9537;DHT22;4807;48.024;11.726;2023-01-15T14:36:39;6.50;99.90
9537;DHT22;4807;48.024;11.726;2023-01-15T14:39:59;4.30;99.90
9537;DHT22;4807;48.024;11.726;2023-01-15T14:43:17;4.20;99.90
9537;DHT22;4807;48.024;11.726;2023-01-15T14:46:31;5.20;99.90
9537;DHT22;4807;48.024;11.726;2023-01-15T14:49:57;4.20;99.90
9537;DHT22;4807;48.024;11.726;2023-01-15T14:53:31;4.20;99.90
9537;DHT22;4807;48.024;11.726;2023-01-15T14:56:48;4.20;99.90
9537;DHT22;4807;48.024;11.726;2023-01-15T15:00:01;4.10;99.90
9537;DHT22;4807;48.024;11.726;2023-01-15T15:03:16;4.10;99.90
9537;DHT22;4807;48.024;11.726;2023-01-15T15:06:29;4.10;99.90
9537;DHT22;4807;48.024;11.726;2023-01-15T15:09:40;4.00;99.90
9537;DHT22;4807;48.024;11.726;2023-01-15T15:13:00;4.10;99.90
9537;DHT22;4807;48.024;11.726;2023-01-15T15:16:19;4.00;99.90
9537;DHT22;4807;48.024;11.726;2023-01-15T15:19:41;3.90;99.90
9537;DHT22;4807;48.024;11.726;2023-01-15T15:22:58;3.90;99.90
9537;DHT22;4807;48.024;11.726;2023-01-15T15:26:24;3.90;99.90
9537;DHT22;4807;48.024;11.726;2023-01-15T15:29:34;4.50;99.90
9537;DHT22;4807;48.024;11.726;2023-01-15T15:32:43;3.90;99.90
9537;DHT22;4807;48.024;11.726;2023-01-15T15:35:56;3.90;99.90
9537;DHT22;4807;48.024;11.726;2023-01-15T15:39:17;3.80;99.90
9537;DHT22;4807;48.024;11.726;2023-01-15T15:42:29;3.90;99.90
9537;DHT22;4807;48.024;11.726;2023-01-15T15:45:58;3.90;99.90
9537;DHT22;4807;48.024;11.726;2023-01-15T15:49:24;3.80;99.90
9537;DHT22;4807;48.024;11.726;2023-01-15T15:52:34;3.80;99.90
9537;DHT22;4807;48.024;11.726;2023-01-15T15:55:44;3.70;99.90
9537;DHT22;4807;48.024;11.726;2023-01-15T15:58:53;4.90;99.90
9537;DHT22;4807;48.024;11.726;2023-01-15T16:02:14;3.80;99.90
9537;DHT22;4807;48.024;11.726;2023-01-15T16:05:26;3.80;99.90
9537;DHT22;4807;48.024;11.726;2023-01-15T16:08:38;3.70;99.90
9537;DHT22;4807;48.024;11.726;2023-01-15T16:11:48;3.70;99.90
9537;DHT22;4807;48.024;11.726;2023-01-15T16:14:58;3.60;99.90
9537;DHT22;4807;48.024;11.726;2023-01-15T16:18:17;3.60;99.90
9537;DHT22;4807;48.024;11.726;2023-01-15T16:21:32;3.50;99.90
9537;DHT22;4807;48.024;11.726;2023-01-15T16:24:52;5.30;99.90
9537;DHT22;4807;48.024;11.726;2023-01-15T16:28:03;3.50;99.90
9537;DHT22;4807;48.024;11.726;2023-01-15T16:31:14;3.50;99.90
9537;DHT22;4807;48.024;11.726;2023-01-15T16:34:27;3.40;99.90
9537;DHT22;4807;48.024;11.726;2023-01-15T16:37:38;3.40;99.90
9537;DHT22;4807;48.024;11.726;2023-01-15T16:40:48;3.30;99.90
9537;DHT22;4807;48.024;11.726;2023-01-15T16:43:58;3.30;99.90
9537;DHT22;4807;48.024;11.726;2023-01-15T16:47:20;3.30;99.90
9537;DHT22;4807;48.024;11.726;2023-01-15T16:50:31;3.20;99.90
9537;DHT22;4807;48.024;11.726;2023-01-15T16:53:40;3.20;99.90
9537;DHT22;4807;48.024;11.726;2023-01-15T16:56:52;3.10;99.90
9537;DHT22;4807;48.024;11.726;2023-01-15T17:00:05;3.10;99.90
9537;DHT22;4807;48.024;11.726;2023-01-15T17:03:16;4.70;99.90
9537;DHT22;4807;48.024;11.726;2023-01-15T17:06:28;3.00;99.90
9537;DHT22;4807;48.024;11.726;2023-01-15T17:09:37;2.80;99.90
9537;DHT22;4807;48.024;11.726;2023-01-15T17:12:52;2.80;99.90
9537;DHT22;4807;48.024;11.726;2023-01-15T17:16:13;2.80;99.90
9537;DHT22;4807;48.024;11.726;2023-01-15T17:19:24;2.80;99.90
9537;DHT22;4807;48.024;11.726;2023-01-15T17:22:32;2.80;99.90
9537;DHT22;4807;48.024;11.726;2023-01-15T17:25:41;2.80;99.90
9537;DHT22;4807;48.024;11.726;2023-01-15T17:28:54;2.80;99.90
9537;DHT22;4807;48.024;11.726;2023-01-15T17:32:03;2.70;99.90
9537;DHT22;4807;48.024;11.726;2023-01-15T17:35:22;2.80;99.90
9537;DHT22;4807;48.024;11.726;2023-01-15T17:38:35;2.80;99.90
9537;DHT22;4807;48.024;11.726;2023-01-15T17:41:43;2.80;99.90
9537;DHT22;4807;48.024;11.726;2023-01-15T17:44:53;2.80;99.90
9537;DHT22;4807;48.024;11.726;2023-01-15T17:48:01;2.80;99.90
9537;DHT22;4807;48.024;11.726;2023-01-15T17:51:15;2.80;99.90
9537;DHT22;4807;48.024;11.726;2023-01-15T17:54:24;1.70;99.90
9537;DHT22;4807;48.024;11.726;2023-01-15T17:57:46;2.70;99.90
9537;DHT22;4807;48.024;11.726;2023-01-15T18:01:17;2.70;99.90
9537;DHT22;4807;48.024;11.726;2023-01-15T18:04:47;2.60;99.90
9537;DHT22;4807;48.024;11.726;2023-01-15T18:08:16;2.60;99.90
9537;DHT22;4807;48.024;11.726;2023-01-15T18:11:27;2.60;99.90
9537;DHT22;4807;48.024;11.726;2023-01-15T18:14:36;2.60;99.90
9537;DHT22;4807;48.024;11.726;2023-01-15T18:17:45;2.60;99.90
9537;DHT22;4807;48.024;11.726;2023-01-15T18:20:54;2.60;99.90
9537;DHT22;4807;48.024;11.726;2023-01-15T18:24:02;2.50;99.90
9537;DHT22;4807;48.024;11.726;2023-01-15T18:27:11;2.50;99.90
9537;DHT22;4807;48.024;11.726;2023-01-15T18:30:19;2.50;99.90
9537;DHT22;4807;48.024;11.726;2023-01-15T18:33:29;2.60;99.90
9537;DHT22;4807;48.024;11.726;2023-01-15T18:36:37;2.50;99.90
9537;DHT22;4807;48.024;11.726;2023-01-15T18:39:47;2.50;99.90
9537;DHT22;4807;48.024;11.726;2023-01-15T18:42:56;2.50;99.90
9537;DHT22;4807;48.024;11.726;2023-01-15T18:46:22;2.40;99.90
9537;DHT22;4807;48.024;11.726;2023-01-15T18:49:50;2.40;99.90
9537;DHT22;4807;48.024;11.726;2023-01-15T18:53:00;2.30;99.90
9537;DHT22;4807;48.024;11.726;2023-01-15T18:56:09;2.20;99.90
9537;DHT22;4807;48.024;11.726;2023-01-15T18:59:17;2.20;99.90
9537;DHT22;4807;48.024;11.726;2023-01-15T19:02:25;2.20;99.90
9537;DHT22;4807;48.024;11.726;2023-01-15T19:05:35;2.20;99.90
9537;DHT22;4807;48.024;11.726;2023-01-15T19:08:43;2.20;99.90
9537;DHT22;4807;48.024;11.726;2023-01-15T19:11:52;2.20;99.90
9537;DHT22;4807;48.024;11.726;2023-01-15T19:15:00;2.20;99.90
9537;DHT22;4807;48.024;11.726;2023-01-15T19:18:26;2.30;99.90
9537;DHT22;4807;48.024;11.726;2023-01-15T19:21:59;2.20;99.90
9537;DHT22;4807;48.024;11.726;2023-01-15T19:25:26;2.10;99.90
9537;DHT22;4807;48.024;11.726;2023-01-15T19:28:37;2.10;99.90
9537;DHT22;4807;48.024;11.726;2023-01-15T19:31:45;2.00;99.90
9537;DHT22;4807;48.024;11.726;2023-01-15T19:34:53;2.00;99.90
9537;DHT22;4807;48.024;11.726;2023-01-15T19:38:03;1.80;99.90
9537;DHT22;4807;48.024;11.726;2023-01-15T19:41:14;1.80;99.90
9537;DHT22;4807;48.024;11.726;2023-01-15T19:44:42;1.80;99.90
9537;DHT22;4807;48.024;11.726;2023-01-15T19:48:12;2.00;99.90
9537;DHT22;4807;48.024;11.726;2023-01-15T19:51:38;2.00;99.90
9537;DHT22;4807;48.024;11.726;2023-01-15T19:55:08;1.80;99.90
9537;DHT22;4807;48.024;11.726;2023-01-15T19:58:17;1.90;99.90
9537;DHT22;4807;48.024;11.726;2023-01-15T20:01:26;1.80;99.90
9537;DHT22;4807;48.024;11.726;2023-01-15T20:04:34;1.70;99.90
9537;DHT22;4807;48.024;11.726;2023-01-15T20:07:43;1.60;99.90
9537;DHT22;4807;48.024;11.726;2023-01-15T20:10:53;1.50;99.90
9537;DHT22;4807;48.024;11.726;2023-01-15T20:14:01;1.40;99.90
9537;DHT22;4807;48.024;11.726;2023-01-15T20:17:08;1.50;99.90
9537;DHT22;4807;48.024;11.726;2023-01-15T20:20:19;1.60;99.90
9537;DHT22;4807;48.024;11.726;2023-01-15T20:23:31;1.60;99.90
9537;DHT22;4807;48.024;11.726;2023-01-15T20:26:43;1.50;99.90
9537;DHT22;4807;48.024;11.726;2023-01-15T20:29:51;1.60;99.90
9537;DHT22;4807;48.024;11.726;2023-01-15T20:33:00;1.40;99.90
9537;DHT22;4807;48.024;11.726;2023-01-15T20:36:12;1.50;99.90
9537;DHT22;4807;48.024;11.726;2023-01-15T20:39:21;1.50;99.90
9537;DHT22;4807;48.024;11.726;2023-01-15T20:42:31;1.50;99.90
9537;DHT22;4807;48.024;11.726;2023-01-15T20:46:06;1.50;99.90
9537;DHT22;4807;48.024;11.726;2023-01-15T20:49:16;1.30;99.90
9537;DHT22;4807;48.024;11.726;2023-01-15T20:52:36;1.10;99.90
9537;DHT22;4807;48.024;11.726;2023-01-15T20:55:47;1.10;99.90
9537;DHT22;4807;48.024;11.726;2023-01-15T20:59:05;1.10;99.90
9537;DHT22;4807;48.024;11.726;2023-01-15T21:02:16;0.90;99.90
9537;DHT22;4807;48.024;11.726;2023-01-15T21:05:26;0.80;99.90
9537;DHT22;4807;48.024;11.726;2023-01-15T21:08:34;0.70;99.90
9537;DHT22;4807;48.024;11.726;2023-01-15T21:11:43;0.80;99.90
9537;DHT22;4807;48.024;11.726;2023-01-15T21:14:53;0.70;99.90